Lumberton, North Carolina
Current Conditions -  °F | °C
As of 3:54 AM on Saturday 20 Dec 2014 (Local Time) from KLBT Reporting Station
Clear Clear  
Wind Chill:   Ceiling: Unl
Heat Index:   Visibility: 10mi
Dew Point:   Wind: 5mph
Humidity: 65%   Direction: 90°E
Pressure: 30.2"   Gusts: NA
Location:  34.62°N, 79.01°W
Report Text: KLBT 200854Z AUTO 09004KT 10SM CLR 07/01 A3020 RMK AO2 SLP228 T00670006 53001
Loading
Personal Weather Stations






























Interactive Weather Map New forecast layout! Learn more

10-Day Weather Forecast

Advertisements
Track Severe Weather on mobile